createdAt,value
2023-02-07T00:00:58.097Z,0
2023-02-07T00:02:14.406Z,0
2023-02-07T00:03:30.686Z,0
2023-02-07T00:04:46.995Z,0
2023-02-07T00:06:03.276Z,0
2023-02-07T00:07:19.580Z,0
2023-02-07T00:08:35.881Z,0
2023-02-07T00:09:52.165Z,0
2023-02-07T00:11:08.468Z,0
2023-02-07T00:12:24.760Z,0
2023-02-07T00:13:41.047Z,0
2023-02-07T00:14:57.336Z,0
2023-02-07T00:16:13.626Z,0
2023-02-07T00:17:28.947Z,0
2023-02-07T00:18:45.237Z,0
2023-02-07T00:20:01.539Z,0
2023-02-07T00:21:17.834Z,0
2023-02-07T00:22:34.123Z,0
2023-02-07T00:23:50.426Z,0
2023-02-07T00:25:06.719Z,0
2023-02-07T00:26:23.006Z,0
2023-02-07T00:27:39.296Z,0
2023-02-07T00:28:55.585Z,0
2023-02-07T00:30:11.878Z,0
2023-02-07T00:31:28.191Z,0
2023-02-07T00:32:44.470Z,0
2023-02-07T00:33:59.779Z,0
2023-02-07T00:35:16.083Z,0
2023-02-07T00:36:32.371Z,0
2023-02-07T00:37:48.665Z,0
2023-02-07T00:39:04.959Z,0
2023-02-07T00:40:21.259Z,0
2023-02-07T00:41:37.552Z,0
2023-02-07T00:42:53.850Z,0
2023-02-07T00:44:10.149Z,0
2023-02-07T00:45:26.000Z,0
2023-02-07T00:46:42.733Z,0
2023-02-07T00:47:59.030Z,0
2023-02-07T00:49:15.317Z,0
2023-02-07T00:50:30.628Z,0
2023-02-07T00:51:46.923Z,0
2023-02-07T00:53:03.221Z,0
2023-02-07T00:54:19.505Z,0
2023-02-07T00:55:35.799Z,0
2023-02-07T00:56:52.106Z,0
2023-02-07T00:58:08.400Z,0
2023-02-07T00:59:24.698Z,0
2023-02-07T01:00:40.983Z,0
2023-02-07T01:01:57.271Z,0
2023-02-07T01:03:13.567Z,0
2023-02-07T01:04:29.866Z,0
2023-02-07T01:05:46.153Z,0
2023-02-07T01:07:01.462Z,0
2023-02-07T01:08:17.767Z,0
2023-02-07T01:09:34.053Z,0
2023-02-07T01:10:50.361Z,0
2023-02-07T01:12:06.655Z,0
2023-02-07T01:13:22.935Z,0
2023-02-07T01:14:38.266Z,0
2023-02-07T01:15:54.553Z,0
2023-02-07T01:17:10.850Z,0
2023-02-07T01:18:27.135Z,0
2023-02-07T01:19:43.429Z,0
2023-02-07T01:20:59.729Z,0
2023-02-07T01:22:16.027Z,0
2023-02-07T01:23:32.310Z,0
2023-02-07T01:24:48.618Z,0
2023-02-07T01:26:04.911Z,0
2023-02-07T01:27:21.190Z,0
2023-02-07T01:28:37.499Z,0
2023-02-07T01:29:53.000Z,0
2023-02-07T01:31:09.104Z,0
2023-02-07T01:32:25.400Z,0
2023-02-07T01:33:41.686Z,0
2023-02-07T01:34:57.991Z,0
2023-02-07T01:36:14.278Z,0
2023-02-07T01:37:30.564Z,0
2023-02-07T01:38:46.864Z,0
2023-02-07T01:40:03.153Z,0
2023-02-07T01:41:19.462Z,0
2023-02-07T01:42:35.745Z,0
2023-02-07T01:43:52.033Z,0
2023-02-07T01:45:08.331Z,0
2023-02-07T01:46:24.632Z,0
2023-02-07T01:47:39.940Z,0
2023-02-07T01:48:56.243Z,0
2023-02-07T01:50:12.524Z,0
2023-02-07T01:51:28.822Z,0
2023-02-07T01:52:45.128Z,0
2023-02-07T01:54:01.417Z,0
2023-02-07T01:55:17.705Z,0
2023-02-07T01:56:34.007Z,0
2023-02-07T01:57:50.292Z,0
2023-02-07T01:59:06.599Z,0
2023-02-07T02:00:22.880Z,0
2023-02-07T02:01:39.175Z,0
2023-02-07T02:02:55.470Z,0
2023-02-07T02:04:10.784Z,0
2023-02-07T02:05:27.086Z,0
2023-02-07T02:06:43.381Z,0
2023-02-07T02:07:59.676Z,0
2023-02-07T02:09:15.966Z,0
2023-02-07T02:10:32.248Z,0
2023-02-07T02:11:48.542Z,0
2023-02-07T02:13:04.848Z,0
2023-02-07T02:14:21.135Z,0
2023-02-07T02:15:37.436Z,0
2023-02-07T02:16:53.719Z,0
2023-02-07T02:18:10.023Z,0
2023-02-07T02:19:26.316Z,0
2023-02-07T02:20:41.619Z,0
2023-02-07T02:21:57.920Z,0
2023-02-07T02:23:14.220Z,0
2023-02-07T02:24:30.516Z,0
2023-02-07T02:25:46.812Z,0
2023-02-07T02:27:03.090Z,0
2023-02-07T02:28:19.386Z,0
2023-02-07T02:29:35.689Z,0
2023-02-07T02:30:51.980Z,0
2023-02-07T02:32:08.271Z,0
2023-02-07T02:33:24.571Z,0
2023-02-07T02:34:40.863Z,0
2023-02-07T02:35:57.169Z,0
2023-02-07T02:37:12.470Z,0
2023-02-07T02:38:28.764Z,0
2023-02-07T02:39:45.061Z,0
2023-02-07T02:41:01.360Z,0
2023-02-07T02:42:17.638Z,0
2023-02-07T02:43:33.935Z,0
2023-02-07T02:44:50.231Z,0
2023-02-07T02:46:06.525Z,0
2023-02-07T02:47:22.833Z,0
2023-02-07T02:48:39.111Z,0
2023-02-07T02:49:55.424Z,0
2023-02-07T02:51:11.698Z,0
2023-02-07T02:52:28.000Z,0
2023-02-07T02:53:43.315Z,0
2023-02-07T02:54:59.605Z,0
2023-02-07T02:56:15.906Z,0
2023-02-07T02:57:32.199Z,0
2023-02-07T02:58:48.480Z,0
2023-02-07T03:00:04.786Z,0
2023-02-07T03:01:21.070Z,0
2023-02-07T03:02:37.375Z,0
2023-02-07T03:03:53.671Z,0
2023-02-07T03:05:09.961Z,0
2023-02-07T03:06:26.255Z,0
2023-02-07T03:07:42.542Z,0
2023-02-07T03:08:58.842Z,0
2023-02-07T03:10:14.154Z,0
2023-02-07T03:11:30.461Z,0
2023-02-07T03:12:46.751Z,0
2023-02-07T03:14:03.047Z,0
2023-02-07T03:15:19.342Z,0
2023-02-07T03:16:35.628Z,0
2023-02-07T03:17:51.921Z,0
2023-02-07T03:19:08.220Z,0
2023-02-07T03:20:24.519Z,0
2023-02-07T03:21:40.807Z,0
2023-02-07T03:22:57.102Z,0
2023-02-07T03:24:13.394Z,0
2023-02-07T03:25:29.697Z,0
2023-02-07T03:26:45.001Z,0
2023-02-07T03:28:01.307Z,0
2023-02-07T03:29:17.589Z,0
2023-02-07T03:30:33.887Z,0
2023-02-07T03:31:50.173Z,0
2023-02-07T03:33:06.481Z,0
2023-02-07T03:34:22.767Z,0
2023-02-07T03:35:39.070Z,0
2023-02-07T03:36:55.349Z,0
2023-02-07T03:38:11.653Z,0
2023-02-07T03:39:27.953Z,0
2023-02-07T03:40:44.231Z,0
2023-02-07T03:42:00.526Z,0
2023-02-07T03:43:15.844Z,0
2023-02-07T03:44:32.134Z,0
2023-02-07T03:45:48.444Z,0
2023-02-07T03:47:04.727Z,0
2023-02-07T03:48:21.034Z,0
2023-02-07T03:49:37.324Z,0
2023-02-07T03:50:53.620Z,0
2023-02-07T03:52:09.907Z,0
2023-02-07T03:53:26.206Z,0
2023-02-07T03:54:42.493Z,0
2023-02-07T03:55:58.790Z,0
2023-02-07T03:57:15.089Z,0
2023-02-07T03:58:31.374Z,0
2023-02-07T03:59:46.682Z,0
2023-02-07T04:01:02.983Z,0
2023-02-07T04:02:19.277Z,0
2023-02-07T04:03:35.578Z,0
2023-02-07T04:04:51.862Z,0
2023-02-07T04:06:08.164Z,0
2023-02-07T04:07:24.461Z,0
2023-02-07T04:08:40.760Z,0
2023-02-07T04:09:57.051Z,0
2023-02-07T04:11:13.334Z,0
2023-02-07T04:12:29.630Z,0
2023-02-07T04:13:45.931Z,0
2023-02-07T04:15:02.235Z,0
2023-02-07T04:16:17.533Z,0
2023-02-07T04:17:33.822Z,0
2023-02-07T04:18:50.116Z,0
2023-02-07T04:20:06.420Z,0
2023-02-07T04:21:22.708Z,0
2023-02-07T04:22:39.012Z,0
2023-02-07T04:23:55.299Z,0
2023-02-07T04:25:11.605Z,0
2023-02-07T04:26:27.883Z,0
2023-02-07T04:27:44.190Z,0
2023-02-07T04:29:00.480Z,0
2023-02-07T04:30:16.783Z,0
2023-02-07T04:31:33.061Z,0
2023-02-07T04:32:48.372Z,0
2023-02-07T04:34:04.670Z,0
2023-02-07T04:35:20.969Z,0
2023-02-07T04:36:37.265Z,0
2023-02-07T04:37:53.550Z,0
2023-02-07T04:39:09.846Z,0
2023-02-07T04:40:26.144Z,0
2023-02-07T04:41:42.438Z,0
2023-02-07T04:42:58.740Z,0
2023-02-07T04:44:15.030Z,0
2023-02-07T04:45:31.323Z,0
2023-02-07T04:46:47.627Z,0
2023-02-07T04:48:03.922Z,0
2023-02-07T04:49:19.228Z,0
2023-02-07T04:50:35.529Z,0
2023-02-07T04:51:51.805Z,0
2023-02-07T04:53:08.115Z,0
2023-02-07T04:54:24.408Z,0
2023-02-07T04:55:40.692Z,0
2023-02-07T04:56:56.984Z,0
2023-02-07T04:58:13.293Z,0
2023-02-07T04:59:29.590Z,0
2023-02-07T05:00:45.879Z,0
2023-02-07T05:02:02.178Z,0
2023-02-07T05:03:18.465Z,0
2023-02-07T05:04:34.763Z,0
2023-02-07T05:05:50.070Z,0
2023-02-07T05:07:06.370Z,0
2023-02-07T05:08:22.671Z,0
2023-02-07T05:09:38.964Z,0
2023-02-07T05:10:55.258Z,0
2023-02-07T05:12:11.547Z,0
2023-02-07T05:13:27.834Z,0
2023-02-07T05:14:44.121Z,0
2023-02-07T05:16:00.426Z,0
2023-02-07T05:17:16.726Z,0
2023-02-07T05:19:49.314Z,0
2023-02-07T05:21:05.599Z,0
2023-02-07T05:22:20.926Z,0
2023-02-07T05:23:37.205Z,0
2023-02-07T05:24:53.501Z,0
2023-02-07T05:26:09.804Z,0
2023-02-07T05:27:26.096Z,0
2023-02-07T05:28:42.391Z,0
2023-02-07T05:29:57.695Z,0
2023-02-07T05:31:13.996Z,0
2023-02-07T05:32:30.296Z,0
2023-02-07T05:33:46.578Z,0
2023-02-07T05:35:02.880Z,0
2023-02-07T05:36:19.183Z,0
2023-02-07T05:37:35.473Z,0
2023-02-07T05:38:51.770Z,0
2023-02-07T05:40:08.069Z,0
2023-02-07T05:41:24.353Z,0
2023-02-07T05:42:40.651Z,0
2023-02-07T05:43:56.947Z,0
2023-02-07T05:45:13.243Z,0
2023-02-07T05:46:28.555Z,0
2023-02-07T05:47:44.843Z,0
2023-02-07T05:49:01.130Z,0
2023-02-07T05:50:17.426Z,0
2023-02-07T05:51:33.731Z,0
2023-02-07T05:52:50.028Z,0
2023-02-07T05:54:06.310Z,0
2023-02-07T05:55:22.619Z,0
2023-02-07T05:56:38.894Z,0
2023-02-07T05:57:55.201Z,0
2023-02-07T05:59:11.500Z,0
2023-02-07T06:00:27.793Z,0
2023-02-07T06:01:44.074Z,0
2023-02-07T06:02:59.399Z,0
2023-02-07T06:04:15.697Z,0
2023-02-07T06:05:31.991Z,0
2023-02-07T06:06:48.216Z,0
2023-02-07T06:08:04.511Z,0
2023-02-07T06:09:20.771Z,0
2023-02-07T06:10:37.014Z,0
2023-02-07T06:11:53.293Z,0
2023-02-07T06:13:09.562Z,0
2023-02-07T06:14:25.795Z,0
2023-02-07T06:15:42.052Z,0
2023-02-07T06:16:58.297Z,0
2023-02-07T06:18:14.537Z,0
2023-02-07T06:19:29.790Z,0
2023-02-07T06:20:46.029Z,0
2023-02-07T06:22:02.281Z,0
2023-02-07T06:23:18.512Z,0
2023-02-07T06:24:34.753Z,0
2023-02-07T06:25:50.989Z,0
2023-02-07T06:27:07.232Z,0
2023-02-07T06:28:23.477Z,0
2023-02-07T06:29:39.721Z,0
2023-02-07T06:30:55.952Z,0
2023-02-07T06:32:12.194Z,0
2023-02-07T06:33:28.439Z,0
2023-02-07T06:34:44.676Z,0
2023-02-07T06:35:59.931Z,0
2023-02-07T06:37:16.172Z,0
2023-02-07T06:38:32.418Z,0
2023-02-07T06:39:48.669Z,0
2023-02-07T06:41:04.910Z,0
2023-02-07T06:42:21.135Z,0
2023-02-07T06:43:37.391Z,0
2023-02-07T06:44:53.618Z,0
2023-02-07T06:46:09.854Z,0
2023-02-07T06:47:26.094Z,0
2023-02-07T06:48:42.343Z,0
2023-02-07T06:49:58.579Z,0
2023-02-07T06:51:14.832Z,0
2023-02-07T06:52:30.087Z,0
2023-02-07T06:53:46.325Z,0
2023-02-07T06:55:02.554Z,5
2023-02-07T06:56:18.803Z,5
2023-02-07T06:57:35.031Z,5
2023-02-07T06:58:51.287Z,5
2023-02-07T07:00:07.523Z,5
2023-02-07T07:01:23.763Z,5
2023-02-07T07:02:39.999Z,5
2023-02-07T07:03:56.242Z,5
2023-02-07T07:05:12.474Z,5
2023-02-07T07:06:28.733Z,5
2023-02-07T07:07:44.967Z,5
2023-02-07T07:09:00.220Z,5
2023-02-07T07:10:16.459Z,5
2023-02-07T07:11:32.700Z,5
2023-02-07T07:12:48.946Z,5
2023-02-07T07:14:05.175Z,5
2023-02-07T07:15:21.418Z,5
2023-02-07T07:16:37.661Z,11
2023-02-07T07:17:53.909Z,11
2023-02-07T07:19:10.140Z,11
2023-02-07T07:20:26.392Z,11
2023-02-07T07:21:42.625Z,11
2023-02-07T07:22:58.864Z,11
2023-02-07T07:24:15.101Z,11
2023-02-07T07:25:30.354Z,11
2023-02-07T07:26:46.609Z,11
2023-02-07T07:28:02.835Z,11
2023-02-07T07:29:19.086Z,11
2023-02-07T07:30:35.321Z,16
2023-02-07T07:31:51.561Z,16
2023-02-07T07:33:07.801Z,11
2023-02-07T07:34:24.035Z,16
2023-02-07T07:35:40.290Z,16
2023-02-07T07:36:56.527Z,16
2023-02-07T07:38:12.760Z,16
2023-02-07T07:39:29.013Z,16
2023-02-07T07:40:45.250Z,16
2023-02-07T07:42:00.505Z,16
2023-02-07T07:43:16.750Z,16
2023-02-07T07:44:32.988Z,16
2023-02-07T07:45:49.221Z,16
2023-02-07T07:47:05.453Z,16
2023-02-07T07:48:21.700Z,16
2023-02-07T07:49:37.940Z,16
2023-02-07T07:50:54.175Z,16
2023-02-07T07:53:26.655Z,16
2023-02-07T07:54:42.905Z,16
2023-02-07T07:55:59.139Z,22
2023-02-07T07:57:15.373Z,22
2023-02-07T07:58:30.642Z,22
2023-02-07T07:59:46.885Z,22
2023-02-07T08:01:03.115Z,22
2023-02-07T08:02:19.362Z,22
2023-02-07T08:03:35.605Z,22
2023-02-07T08:04:51.833Z,28
2023-02-07T08:06:08.080Z,28
2023-02-07T08:07:24.317Z,28
2023-02-07T08:08:40.554Z,28
2023-02-07T08:09:56.798Z,28
2023-02-07T08:11:13.051Z,28
2023-02-07T08:12:29.283Z,28
2023-02-07T08:13:45.514Z,33
2023-02-07T08:15:00.789Z,33
2023-02-07T08:16:17.012Z,33
2023-02-07T08:17:33.256Z,39
2023-02-07T08:18:49.494Z,39
2023-02-07T08:20:05.729Z,39
2023-02-07T08:21:21.989Z,45
2023-02-07T08:22:38.210Z,39
2023-02-07T08:23:54.466Z,39
2023-02-07T08:25:10.699Z,39
2023-02-07T08:26:26.940Z,39
2023-02-07T08:27:43.188Z,39
2023-02-07T08:28:59.426Z,45
2023-02-07T08:30:15.669Z,45
2023-02-07T08:31:30.908Z,45
2023-02-07T08:32:47.156Z,45
2023-02-07T08:34:03.396Z,50
2023-02-07T08:35:19.645Z,45
2023-02-07T08:36:35.885Z,45
2023-02-07T08:37:52.111Z,45
2023-02-07T08:39:08.363Z,50
2023-02-07T08:40:24.605Z,50
2023-02-07T08:41:40.847Z,45
2023-02-07T08:42:57.079Z,45
2023-02-07T08:44:13.318Z,45
2023-02-07T08:45:29.565Z,45
2023-02-07T08:46:45.809Z,45
2023-02-07T08:48:01.055Z,45
2023-02-07T08:49:17.299Z,45
2023-02-07T08:50:33.528Z,45
2023-02-07T08:51:49.783Z,45
2023-02-07T08:53:06.010Z,45
2023-02-07T08:54:22.267Z,45
2023-02-07T08:55:38.503Z,45
2023-02-07T08:56:54.730Z,45
2023-02-07T08:58:10.988Z,45
2023-02-07T08:59:27.229Z,50
2023-02-07T09:00:43.458Z,50
2023-02-07T09:01:59.711Z,50
2023-02-07T09:03:15.931Z,50
2023-02-07T09:04:31.187Z,50
2023-02-07T09:05:47.430Z,50
2023-02-07T09:07:03.683Z,50
2023-02-07T09:08:19.912Z,50
2023-02-07T09:09:36.158Z,50
2023-02-07T09:10:52.403Z,50
2023-02-07T09:12:08.645Z,50
2023-02-07T09:13:24.882Z,50
2023-02-07T09:14:41.109Z,50
2023-02-07T09:15:57.362Z,50
2023-02-07T09:17:13.597Z,50
2023-02-07T09:18:29.848Z,50
2023-02-07T09:19:46.076Z,50
2023-02-07T09:21:01.345Z,56
2023-02-07T09:22:17.576Z,56
2023-02-07T09:23:33.819Z,56
2023-02-07T09:24:50.054Z,56
2023-02-07T09:26:06.291Z,56
2023-02-07T09:27:22.526Z,56
2023-02-07T09:28:38.781Z,56
2023-02-07T09:29:55.011Z,56
2023-02-07T09:31:11.260Z,56
2023-02-07T09:32:27.497Z,56
2023-02-07T09:33:43.744Z,56
2023-02-07T09:34:59.984Z,61
2023-02-07T09:36:16.227Z,61
2023-02-07T09:37:31.467Z,61
2023-02-07T09:38:47.707Z,61
2023-02-07T09:40:03.942Z,61
2023-02-07T09:41:20.191Z,61
2023-02-07T09:42:36.438Z,61
2023-02-07T09:43:52.666Z,67
2023-02-07T09:45:07.934Z,67
2023-02-07T09:46:24.175Z,67
2023-02-07T09:47:40.412Z,67
2023-02-07T09:48:56.659Z,67
2023-02-07T09:50:12.895Z,67
2023-02-07T09:51:29.140Z,73
2023-02-07T09:52:45.374Z,78
2023-02-07T09:54:01.623Z,84
2023-02-07T09:55:17.855Z,90
2023-02-07T09:56:34.098Z,90
2023-02-07T09:57:50.325Z,90
2023-02-07T09:59:06.571Z,84
2023-02-07T10:00:22.812Z,84
2023-02-07T10:01:38.077Z,84
2023-02-07T10:02:54.317Z,78
2023-02-07T10:04:10.548Z,78
2023-02-07T10:05:26.781Z,84
2023-02-07T10:06:43.023Z,84
2023-02-07T10:07:59.268Z,90
2023-02-07T10:09:15.517Z,84
2023-02-07T10:10:31.753Z,84
2023-02-07T10:11:47.986Z,84
2023-02-07T10:13:04.239Z,90
2023-02-07T10:14:20.466Z,95
2023-02-07T10:15:36.718Z,101
2023-02-07T10:16:52.945Z,112
2023-02-07T10:18:08.196Z,123
2023-02-07T10:19:24.440Z,118
2023-02-07T10:20:40.679Z,101
2023-02-07T10:21:56.917Z,95
2023-02-07T10:23:13.156Z,90
2023-02-07T10:24:29.400Z,90
2023-02-07T10:25:45.641Z,90
2023-02-07T10:27:01.886Z,90
2023-02-07T10:28:18.126Z,90
2023-02-07T10:29:34.366Z,90
2023-02-07T10:30:50.597Z,90
2023-02-07T10:32:06.852Z,95
2023-02-07T10:33:23.076Z,106
2023-02-07T10:34:38.346Z,112
2023-02-07T10:35:54.576Z,123
2023-02-07T10:37:10.827Z,123
2023-02-07T10:38:27.053Z,106
2023-02-07T10:39:43.299Z,106
2023-02-07T10:40:59.549Z,135
2023-02-07T10:42:15.787Z,163
2023-02-07T10:43:32.019Z,168
2023-02-07T10:44:48.270Z,140
2023-02-07T10:46:04.510Z,140
2023-02-07T10:47:20.731Z,129
2023-02-07T10:48:36.970Z,129
2023-02-07T10:49:53.218Z,129
2023-02-07T10:51:08.474Z,123
2023-02-07T10:52:24.722Z,112
2023-02-07T10:53:40.954Z,112
2023-02-07T10:54:57.186Z,106
2023-02-07T10:56:13.429Z,106
2023-02-07T10:57:29.668Z,106
2023-02-07T10:58:45.921Z,101
2023-02-07T11:00:02.146Z,101
2023-02-07T11:01:18.396Z,106
2023-02-07T11:02:34.640Z,106
2023-02-07T11:03:50.885Z,101
2023-02-07T11:05:07.115Z,95
2023-02-07T11:06:23.357Z,95
2023-02-07T11:07:38.614Z,95
2023-02-07T11:08:54.841Z,95
2023-02-07T11:10:11.081Z,90
2023-02-07T11:11:27.322Z,90
2023-02-07T11:12:43.562Z,90
2023-02-07T11:13:59.819Z,90
2023-02-07T11:15:16.043Z,90
2023-02-07T11:16:32.286Z,95
2023-02-07T11:17:48.533Z,95
2023-02-07T11:19:04.777Z,95
2023-02-07T11:20:21.011Z,95
2023-02-07T11:21:37.250Z,95
2023-02-07T11:22:53.500Z,95
2023-02-07T11:24:08.738Z,95
2023-02-07T11:25:24.976Z,90
2023-02-07T11:26:41.219Z,95
2023-02-07T11:27:57.455Z,95
2023-02-07T11:29:13.709Z,95
2023-02-07T11:30:29.945Z,101
2023-02-07T11:31:46.191Z,101
2023-02-07T11:33:02.430Z,106
2023-02-07T11:34:18.664Z,106
2023-02-07T11:35:34.897Z,106
2023-02-07T11:36:51.150Z,106
2023-02-07T11:38:07.377Z,106
2023-02-07T11:39:23.628Z,106
2023-02-07T11:40:38.888Z,106
2023-02-07T11:41:55.114Z,112
2023-02-07T11:43:11.356Z,118
2023-02-07T11:44:27.597Z,123
2023-02-07T11:45:43.844Z,123
2023-02-07T11:47:00.083Z,123
2023-02-07T11:48:16.318Z,123
2023-02-07T11:49:32.550Z,135
2023-02-07T11:50:48.797Z,146
2023-02-07T11:52:05.033Z,151
2023-02-07T11:53:21.277Z,146
2023-02-07T11:54:37.524Z,140
2023-02-07T11:55:53.763Z,135
2023-02-07T11:57:09.018Z,135
2023-02-07T11:58:25.240Z,129
2023-02-07T11:59:41.500Z,118
2023-02-07T12:00:57.733Z,112
2023-02-07T12:02:13.968Z,118
2023-02-07T12:03:30.205Z,112
2023-02-07T12:04:46.439Z,106
2023-02-07T12:06:02.681Z,95
2023-02-07T12:07:18.924Z,95
2023-02-07T12:08:35.164Z,95
2023-02-07T12:09:51.403Z,90
2023-02-07T12:11:07.636Z,90
2023-02-07T12:12:23.896Z,84
2023-02-07T12:13:39.151Z,78
2023-02-07T12:14:55.377Z,78
2023-02-07T12:16:11.616Z,78
2023-02-07T12:17:27.861Z,73
2023-02-07T12:18:44.102Z,73
2023-02-07T12:20:00.343Z,73
2023-02-07T12:21:16.577Z,73
2023-02-07T12:22:32.819Z,78
2023-02-07T12:23:49.052Z,73
2023-02-07T12:25:05.291Z,73
2023-02-07T12:26:21.529Z,73
2023-02-07T12:27:37.777Z,73
2023-02-07T12:28:54.024Z,73
2023-02-07T12:30:09.270Z,78
2023-02-07T12:31:25.519Z,78
2023-02-07T12:32:41.755Z,78
2023-02-07T12:33:58.003Z,78
2023-02-07T12:35:14.225Z,84
2023-02-07T12:36:30.472Z,84
2023-02-07T12:37:46.705Z,84
2023-02-07T12:39:02.959Z,84
2023-02-07T12:40:19.199Z,84
2023-02-07T12:41:35.433Z,84
2023-02-07T12:42:51.682Z,84
2023-02-07T12:44:07.910Z,90
2023-02-07T12:45:24.160Z,90
2023-02-07T12:46:39.416Z,95
2023-02-07T12:47:55.645Z,95
2023-02-07T12:49:11.883Z,95
2023-02-07T12:50:28.123Z,95
2023-02-07T12:51:44.374Z,95
2023-02-07T12:53:00.600Z,90
2023-02-07T12:54:16.853Z,90
2023-02-07T12:55:33.087Z,84
2023-02-07T12:56:49.334Z,84
2023-02-07T12:58:05.562Z,90
2023-02-07T12:59:21.802Z,90
2023-02-07T13:00:38.037Z,90
2023-02-07T13:01:54.278Z,95
2023-02-07T13:03:09.531Z,101
2023-02-07T13:04:25.786Z,106
2023-02-07T13:05:42.012Z,112
2023-02-07T13:06:58.260Z,112
2023-02-07T13:08:14.498Z,118
2023-02-07T13:09:30.738Z,106
2023-02-07T13:10:46.968Z,101
2023-02-07T13:12:03.210Z,95
2023-02-07T13:13:19.449Z,90
2023-02-07T13:14:35.703Z,90
2023-02-07T13:15:51.940Z,95
2023-02-07T13:17:08.174Z,95
2023-02-07T13:18:24.426Z,101
2023-02-07T13:19:39.673Z,90
2023-02-07T13:20:55.917Z,101
2023-02-07T13:22:12.151Z,106
2023-02-07T13:23:28.393Z,112
2023-02-07T13:24:44.624Z,106
2023-02-07T13:26:00.867Z,112
2023-02-07T13:27:17.110Z,112
2023-02-07T13:28:33.353Z,118
2023-02-07T13:29:49.587Z,118
2023-02-07T13:31:05.830Z,112
2023-02-07T13:32:22.068Z,112
2023-02-07T13:33:38.310Z,112
2023-02-07T13:34:54.547Z,95
2023-02-07T13:36:09.804Z,90
2023-02-07T13:37:26.051Z,78
2023-02-07T13:38:42.277Z,84
2023-02-07T13:39:58.530Z,84
2023-02-07T13:41:14.761Z,90
2023-02-07T13:42:31.002Z,90
2023-02-07T13:43:47.242Z,84
2023-02-07T13:45:03.476Z,78
2023-02-07T13:46:19.712Z,78
2023-02-07T13:47:35.965Z,84
2023-02-07T13:48:52.203Z,84
2023-02-07T13:50:08.439Z,84
2023-02-07T13:51:24.683Z,84
2023-02-07T13:52:39.946Z,84
2023-02-07T13:53:56.167Z,90
2023-02-07T13:55:12.409Z,90
2023-02-07T13:56:28.660Z,90
2023-02-07T13:57:44.894Z,84
2023-02-07T13:59:01.129Z,84
2023-02-07T14:00:16.406Z,84
2023-02-07T14:01:32.639Z,84
2023-02-07T14:02:48.875Z,95
2023-02-07T14:04:05.119Z,95
2023-02-07T14:05:21.350Z,95
2023-02-07T14:06:37.588Z,84
2023-02-07T14:07:53.844Z,90
2023-02-07T14:09:10.069Z,90
2023-02-07T14:10:26.318Z,106
2023-02-07T14:11:42.561Z,106
2023-02-07T14:12:58.802Z,95
2023-02-07T14:14:15.022Z,90
2023-02-07T14:15:31.273Z,84
2023-02-07T14:16:46.533Z,95
2023-02-07T14:18:02.760Z,90
2023-02-07T14:19:19.015Z,90
2023-02-07T14:20:35.240Z,95
2023-02-07T14:21:51.489Z,95
2023-02-07T14:23:07.716Z,90
2023-02-07T14:24:23.955Z,78
2023-02-07T14:25:40.209Z,84
2023-02-07T14:26:56.452Z,101
2023-02-07T14:28:12.696Z,101
2023-02-07T14:29:28.925Z,101
2023-02-07T14:30:45.156Z,95
2023-02-07T14:32:01.399Z,90
2023-02-07T14:33:16.661Z,84
2023-02-07T14:34:32.904Z,84
2023-02-07T14:35:49.140Z,90
2023-02-07T14:37:05.378Z,84
2023-02-07T14:38:21.000Z,78
2023-02-07T14:39:37.862Z,78
2023-02-07T14:40:54.099Z,73
2023-02-07T14:42:10.344Z,45
2023-02-07T14:43:26.573Z,33
2023-02-07T14:44:42.809Z,45
2023-02-07T14:45:59.058Z,50
2023-02-07T14:47:15.298Z,56
2023-02-07T14:48:31.524Z,56
2023-02-07T14:49:46.781Z,61
2023-02-07T14:51:03.019Z,61
2023-02-07T14:52:19.262Z,61
2023-02-07T14:53:35.518Z,56
2023-02-07T14:54:51.755Z,50
2023-02-07T14:56:07.997Z,50
2023-02-07T14:57:24.221Z,56
2023-02-07T14:58:40.468Z,50
2023-02-07T14:59:56.698Z,50
2023-02-07T15:01:12.941Z,56
2023-02-07T15:02:29.193Z,56
2023-02-07T15:03:45.422Z,56
2023-02-07T15:05:01.662Z,61
2023-02-07T15:06:16.920Z,61
2023-02-07T15:07:33.168Z,56
2023-02-07T15:08:49.399Z,45
2023-02-07T15:10:05.645Z,45
2023-02-07T15:11:21.875Z,45
2023-02-07T15:12:38.111Z,50
2023-02-07T15:13:54.350Z,50
2023-02-07T15:15:10.598Z,56
2023-02-07T15:16:26.839Z,56
2023-02-07T15:17:43.071Z,56
2023-02-07T15:18:59.322Z,56
2023-02-07T15:20:15.555Z,50
2023-02-07T15:21:31.793Z,45
2023-02-07T15:22:47.047Z,39
2023-02-07T15:24:03.297Z,39
2023-02-07T15:25:19.538Z,39
2023-02-07T15:26:35.775Z,33
2023-02-07T15:27:52.024Z,33
2023-02-07T15:29:08.260Z,33
2023-02-07T15:30:24.488Z,28
2023-02-07T15:31:40.729Z,28
2023-02-07T15:32:56.973Z,28
2023-02-07T15:34:13.207Z,28
2023-02-07T15:35:29.456Z,22
2023-02-07T15:36:45.694Z,22
2023-02-07T15:38:01.934Z,22
2023-02-07T15:39:17.194Z,16
2023-02-07T15:40:33.435Z,16
2023-02-07T15:41:49.661Z,16
2023-02-07T15:43:05.911Z,16
2023-02-07T15:44:22.145Z,16
2023-02-07T15:45:38.378Z,11
2023-02-07T15:46:54.625Z,11
2023-02-07T15:48:10.876Z,11
2023-02-07T15:49:27.114Z,11
2023-02-07T15:50:43.345Z,11
2023-02-07T15:51:59.590Z,11
2023-02-07T15:53:15.821Z,11
2023-02-07T15:54:32.063Z,11
2023-02-07T15:55:47.316Z,5
2023-02-07T15:57:03.560Z,5
2023-02-07T15:58:19.795Z,5
2023-02-07T15:59:36.043Z,5
2023-02-07T16:00:52.283Z,5
2023-02-07T16:02:08.515Z,5
2023-02-07T16:03:24.763Z,5
2023-02-07T16:04:41.006Z,5
2023-02-07T16:05:57.244Z,0
2023-02-07T16:07:13.477Z,0
2023-02-07T16:08:29.711Z,0
2023-02-07T16:09:45.970Z,0
2023-02-07T16:11:02.192Z,0
2023-02-07T16:12:17.451Z,0
2023-02-07T16:13:33.690Z,0
2023-02-07T16:14:49.921Z,0
2023-02-07T16:16:06.175Z,0
2023-02-07T16:17:22.406Z,0
2023-02-07T16:18:38.660Z,0
2023-02-07T16:19:54.886Z,0
2023-02-07T16:21:11.123Z,0
2023-02-07T16:22:27.366Z,0
2023-02-07T16:23:43.608Z,0
2023-02-07T16:24:59.859Z,0
2023-02-07T16:26:16.080Z,0
2023-02-07T16:27:32.327Z,0
2023-02-07T16:28:47.583Z,0
2023-02-07T16:30:03.831Z,0
2023-02-07T16:31:20.062Z,0
2023-02-07T16:32:36.309Z,0
2023-02-07T16:33:52.544Z,0
2023-02-07T16:35:08.838Z,0
2023-02-07T16:36:25.072Z,0
2023-02-07T16:37:41.367Z,0
2023-02-07T16:38:57.669Z,0
2023-02-07T16:40:13.910Z,0
2023-02-07T16:41:30.154Z,0
2023-02-07T16:42:46.388Z,0
2023-02-07T16:44:02.671Z,0
2023-02-07T16:45:17.991Z,0
2023-02-07T16:46:34.000Z,0
2023-02-07T16:47:50.576Z,0
2023-02-07T16:49:06.874Z,0
2023-02-07T16:50:23.161Z,0
2023-02-07T16:51:39.462Z,0
2023-02-07T16:52:55.763Z,0
2023-02-07T16:54:12.038Z,0
2023-02-07T16:55:28.345Z,0
2023-02-07T16:56:44.640Z,0
2023-02-07T16:58:00.927Z,0
2023-02-07T16:59:17.218Z,0
2023-02-07T17:00:33.520Z,0
2023-02-07T17:01:48.835Z,0
2023-02-07T17:03:05.122Z,0
2023-02-07T17:04:21.422Z,0
2023-02-07T17:05:37.718Z,0
2023-02-07T17:06:53.998Z,0
2023-02-07T17:08:10.297Z,0
2023-02-07T17:09:26.600Z,0
2023-02-07T17:10:42.896Z,0
2023-02-07T17:11:59.186Z,0
2023-02-07T17:13:15.483Z,0
2023-02-07T17:14:31.766Z,0
2023-02-07T17:15:48.065Z,0
2023-02-07T17:17:04.345Z,0
2023-02-07T17:18:19.664Z,0
2023-02-07T17:19:35.962Z,0
2023-02-07T17:20:52.248Z,0
2023-02-07T17:22:08.553Z,0
2023-02-07T17:23:24.839Z,0
2023-02-07T17:24:41.133Z,0
2023-02-07T17:25:57.425Z,0
2023-02-07T17:27:13.732Z,0
2023-02-07T17:28:30.027Z,0
2023-02-07T17:29:46.302Z,0
2023-02-07T17:31:02.608Z,0
2023-02-07T17:32:18.890Z,0
2023-02-07T17:33:35.186Z,0
2023-02-07T17:34:50.494Z,0
2023-02-07T17:36:06.792Z,0
2023-02-07T17:37:23.098Z,0
2023-02-07T17:38:39.390Z,0
2023-02-07T17:39:55.675Z,0
2023-02-07T17:41:11.962Z,0
2023-02-07T17:42:28.260Z,0
2023-02-07T17:43:44.560Z,0
2023-02-07T17:45:00.845Z,0
2023-02-07T17:46:17.146Z,0
2023-02-07T17:47:33.449Z,0
2023-02-07T17:48:49.735Z,0
2023-02-07T17:50:06.038Z,0
2023-02-07T17:51:21.331Z,0
2023-02-07T17:52:37.636Z,0
2023-02-07T17:53:53.927Z,0
2023-02-07T17:55:10.214Z,0
2023-02-07T17:56:26.522Z,0
2023-02-07T17:57:42.807Z,0
2023-02-07T17:58:59.098Z,0
2023-02-07T18:00:15.388Z,0
2023-02-07T18:01:31.693Z,0
2023-02-07T18:02:47.985Z,0
2023-02-07T18:04:04.288Z,0
2023-02-07T18:05:20.571Z,0
2023-02-07T18:06:36.856Z,0
2023-02-07T18:07:52.181Z,0
2023-02-07T18:09:08.476Z,0
2023-02-07T18:10:24.763Z,0
2023-02-07T18:11:41.055Z,0
2023-02-07T18:12:57.362Z,0
2023-02-07T18:14:13.646Z,0
2023-02-07T18:15:28.954Z,0
2023-02-07T18:16:45.257Z,0
2023-02-07T18:18:01.552Z,0
2023-02-07T18:19:17.847Z,0
2023-02-07T18:20:34.137Z,0
2023-02-07T18:21:50.424Z,0
2023-02-07T18:23:06.724Z,0
2023-02-07T18:24:23.016Z,0
2023-02-07T18:25:39.321Z,0
2023-02-07T18:26:55.615Z,0